Aviation Digital Data Service (ADDS)

Output produced by METARs form (1410 UTC 05 September 2015)
found at http://aviationweather.gov/adds/metars/
 
KSSI 051120Z 0512/0612 35005KT P6SM SCT025 BKN250 
     FM051300 06008KT P6SM VCSH SCT020 BKN040 
     FM051700 08010KT P6SM VCTS BKN040CB BKN250 
     FM052200 07009KT P6SM SCT030 SCT250